Time;durP1;ratioP1;P1;durP2;ratioP2;P2;SDS_P1;SDS_P2;PMS_P1;PMS_P2;Temp;Humidity;BMP_temperature;BMP_pressure;BME280_temperature;BME280_humidity;BME280_pressure;Samples;Min_cycle;Max_cycle;Signal;HPM_P1;HPM_P2
2021/04/26 00:00:27;;;;;;;13.32;11.75;;;6.40;99.90;;;;;;5085208;28;20312;-68
2021/04/26 00:03:06;;;;;;;11.95;10.90;;;6.30;99.90;;;;;;5082604;27;20406;-67
2021/04/26 00:05:45;;;;;;;12.40;11.27;;;6.20;99.90;;;;;;5123584;27;20309;-68
2021/04/26 00:08:24;;;;;;;12.77;11.40;;;6.20;99.90;;;;;;5082007;28;20297;-68
2021/04/26 00:11:04;;;;;;;13.27;11.80;;;6.20;99.90;;;;;;5088412;27;20352;-67
2021/04/26 00:13:42;;;;;;;12.60;11.48;;;6.20;99.90;;;;;;5081308;28;20301;-68
2021/04/26 00:16:22;;;;;;;13.93;11.98;;;6.20;99.90;;;;;;5088595;28;20311;-67
2021/04/26 00:19:04;;;;;;;12.57;11.38;;;6.20;99.90;;;;;;5085972;27;20450;-68
2021/04/26 00:21:43;;;;;;;12.63;11.43;;;6.10;99.90;;;;;;5116262;27;20358;-67
2021/04/26 00:24:22;;;;;;;13.57;12.18;;;6.10;99.90;;;;;;5083198;28;20313;-68
2021/04/26 00:27:01;;;;;;;12.85;11.52;;;6.00;99.90;;;;;;5125292;27;20346;-68
2021/04/26 00:29:41;;;;;;;13.30;11.90;;;6.00;99.90;;;;;;5082797;28;20372;-68
2021/04/26 00:32:21;;;;;;;12.75;11.63;;;6.00;99.90;;;;;;5087148;28;20828;-67
2021/04/26 00:35:01;;;;;;;13.32;12.02;;;5.90;99.90;;;;;;5074721;28;20326;-67
2021/04/26 00:37:42;;;;;;;13.63;11.98;;;5.90;99.90;;;;;;5080924;28;20791;-68
2021/04/26 00:40:23;;;;;;;14.63;12.82;;;5.90;99.90;;;;;;5107532;27;20347;-67
2021/04/26 00:43:02;;;;;;;13.52;12.20;;;5.90;99.90;;;;;;5116380;27;20830;-68
2021/04/26 00:45:42;;;;;;;13.02;11.82;;;5.80;99.90;;;;;;5072917;28;20375;-68
2021/04/26 00:48:59;;;;;;;12.70;11.65;;;5.90;99.90;;;;;;5086816;28;20344;-68
2021/04/26 00:51:38;;;;;;;13.68;12.30;;;5.80;99.90;;;;;;5088886;28;20397;-68
2021/04/26 00:54:18;;;;;;;13.95;12.75;;;5.80;99.90;;;;;;5083421;27;20470;-67
2021/04/26 00:56:56;;;;;;;13.20;12.00;;;5.80;99.90;;;;;;5113574;27;20313;-68
2021/04/26 00:59:36;;;;;;;14.05;12.48;;;5.80;99.90;;;;;;5083317;27;20376;-67
2021/04/26 01:02:16;;;;;;;14.07;12.65;;;5.70;99.90;;;;;;5075584;28;20419;-67
2021/04/26 01:04:58;;;;;;;13.27;12.07;;;5.70;99.90;;;;;;5086424;28;20296;-67
2021/04/26 01:07:40;;;;;;;13.50;12.10;;;5.70;99.90;;;;;;5082092;28;20332;-68
2021/04/26 01:10:25;;;;;;;15.10;12.40;;;5.70;99.90;;;;;;5086338;28;20344;-68
2021/04/26 01:13:10;;;;;;;13.80;12.60;;;5.70;99.90;;;;;;5070162;28;20395;-67
2021/04/26 01:16:07;;;;;;;14.40;13.02;;;5.70;99.90;;;;;;5071142;28;20405;-68
2021/04/26 01:18:50;;;;;;;13.57;12.20;;;5.70;99.90;;;;;;5083019;28;20324;-68
2021/04/26 01:21:48;;;;;;;13.63;12.52;;;5.70;99.90;;;;;;5110200;27;20331;-68
2021/04/26 01:24:46;;;;;;;13.85;12.52;;;5.70;99.90;;;;;;5082701;28;20377;-68
2021/04/26 01:27:47;;;;;;;15.00;13.45;;;5.70;99.90;;;;;;5119597;27;20649;-67
2021/04/26 01:30:41;;;;;;;13.07;11.98;;;5.70;99.90;;;;;;5075515;28;20328;-67
2021/04/26 01:33:33;;;;;;;13.82;12.43;;;5.60;99.90;;;;;;5128914;27;20346;-68
2021/04/26 01:36:22;;;;;;;14.10;12.65;;;5.60;99.90;;;;;;5080908;28;20308;-68
2021/04/26 01:39:05;;;;;;;14.02;12.70;;;5.60;99.90;;;;;;5074745;28;20324;-68
2021/04/26 01:41:46;;;;;;;13.18;11.73;;;5.60;99.90;;;;;;5108263;27;20354;-67
2021/04/26 01:44:25;;;;;;;13.93;12.63;;;5.60;99.90;;;;;;5070632;28;20410;-68
2021/04/26 01:47:08;;;;;;;18.27;13.77;;;5.60;99.90;;;;;;5076984;28;20345;-67
2021/04/26 01:49:48;;;;;;;14.50;13.10;;;5.60;99.90;;;;;;5088488;27;20360;-68
2021/04/26 01:52:27;;;;;;;16.35;13.10;;;5.60;99.90;;;;;;5075147;28;20642;-68
2021/04/26 01:55:09;;;;;;;13.57;12.18;;;5.60;99.90;;;;;;5079241;28;20322;-68
2021/04/26 01:57:49;;;;;;;13.55;12.18;;;5.60;99.90;;;;;;5088311;27;20465;-68
2021/04/26 02:00:31;;;;;;;13.35;12.05;;;5.60;99.90;;;;;;5083569;28;20690;-68
2021/04/26 02:03:18;;;;;;;13.38;11.70;;;5.60;99.90;;;;;;5078318;28;20300;-68
2021/04/26 02:06:06;;;;;;;12.63;11.52;;;5.60;99.90;;;;;;5083793;28;20072;-68
2021/04/26 02:11:34;;;;;;;13.32;11.88;;;5.60;99.90;;;;;;5088679;27;20413;-67
2021/04/26 02:14:15;;;;;;;13.85;12.48;;;5.60;99.90;;;;;;5088528;28;20322;-68
2021/04/26 02:16:55;;;;;;;13.38;12.18;;;5.50;99.90;;;;;;5075881;28;20334;-68
2021/04/26 02:19:34;;;;;;;13.57;12.15;;;5.50;99.90;;;;;;5072395;27;20399;-67
2021/04/26 02:22:14;;;;;;;13.80;12.40;;;5.50;99.90;;;;;;5115734;27;20305;-68
2021/04/26 02:25:12;;;;;;;14.00;12.55;;;5.50;99.90;;;;;;5083731;27;20109;-68
2021/04/26 02:27:51;;;;;;;16.55;12.38;;;5.60;99.90;;;;;;5100222;27;20300;-67
2021/04/26 02:30:31;;;;;;;12.82;11.55;;;5.50;99.90;;;;;;5081847;28;20308;-68
2021/04/26 02:33:16;;;;;;;14.05;12.65;;;5.50;99.90;;;;;;5113899;27;20352;-68
2021/04/26 02:36:24;;;;;;;13.30;11.88;;;5.50;99.90;;;;;;5087802;28;20654;-68
2021/04/26 02:39:07;;;;;;;13.52;12.23;;;5.50;99.90;;;;;;5087143;28;20296;-67
2021/04/26 02:41:48;;;;;;;13.48;12.25;;;5.40;99.90;;;;;;5088441;28;20824;-68
2021/04/26 02:44:33;;;;;;;13.60;12.18;;;5.40;99.90;;;;;;5068914;28;20855;-67
2021/04/26 02:47:21;;;;;;;12.65;11.57;;;5.40;99.90;;;;;;5067503;28;20353;-68
2021/04/26 02:50:21;;;;;;;14.30;13.00;;;5.50;99.90;;;;;;5106967;27;20476;-67
2021/04/26 02:53:22;;;;;;;13.95;12.32;;;5.50;99.90;;;;;;5117913;27;20334;-68
2021/04/26 02:56:07;;;;;;;14.80;12.55;;;5.50;99.90;;;;;;5088805;28;20307;-68
2021/04/26 02:58:53;;;;;;;15.00;11.90;;;5.50;99.90;;;;;;5125538;27;20362;-68
2021/04/26 03:01:41;;;;;;;13.98;12.07;;;5.50;99.90;;;;;;5087969;28;20304;-68
2021/04/26 03:04:29;;;;;;;13.50;12.30;;;5.40;99.90;;;;;;5111683;27;20557;-67
2021/04/26 03:07:14;;;;;;;13.25;12.07;;;5.40;99.90;;;;;;5108963;27;20125;-67
2021/04/26 03:10:18;;;;;;;12.75;11.63;;;5.40;99.90;;;;;;5088877;28;20316;-69
2021/04/26 03:12:57;;;;;;;17.13;12.18;;;5.40;99.90;;;;;;5074820;27;20951;-68
2021/04/26 03:15:37;;;;;;;13.70;12.18;;;5.30;99.90;;;;;;5075186;28;20338;-67
2021/04/26 03:18:18;;;;;;;13.88;11.77;;;5.30;99.90;;;;;;5087540;28;20106;-67
2021/04/26 03:20:57;;;;;;;13.15;11.88;;;5.30;99.90;;;;;;5086075;27;20348;-67
2021/04/26 03:23:38;;;;;;;14.85;13.35;;;5.30;99.90;;;;;;5076260;28;20339;-68
2021/04/26 03:26:18;;;;;;;13.45;11.80;;;5.30;99.90;;;;;;5067616;28;20312;-67
2021/04/26 03:28:59;;;;;;;15.57;12.00;;;5.30;99.90;;;;;;5084535;28;20307;-68
2021/04/26 03:31:41;;;;;;;14.90;12.52;;;5.20;99.90;;;;;;5088398;27;20477;-67
2021/04/26 03:34:33;;;;;;;16.67;12.23;;;5.20;99.90;;;;;;5088250;28;20303;-68
2021/04/26 03:37:16;;;;;;;13.27;12.07;;;5.20;99.90;;;;;;5111549;27;20306;-67
2021/04/26 03:39:56;;;;;;;14.82;11.68;;;5.10;99.90;;;;;;5086947;28;20303;-67
2021/04/26 03:45:00;;;;;;;13.23;11.98;;;5.10;99.90;;;;;;5076095;28;20333;-67
2021/04/26 03:47:50;;;;;;;13.90;12.50;;;5.00;99.90;;;;;;5068099;28;20873;-68
2021/04/26 03:50:29;;;;;;;13.32;11.90;;;5.00;99.90;;;;;;5086183;28;20328;-67
2021/04/26 03:53:26;;;;;;;13.75;12.35;;;5.00;99.90;;;;;;5117367;27;20508;-67
2021/04/26 03:56:24;;;;;;;13.48;12.10;;;4.90;99.90;;;;;;5090647;27;20115;-67
2021/04/26 03:59:03;;;;;;;13.10;11.80;;;4.90;99.90;;;;;;5083700;28;20693;-68
2021/04/26 04:01:45;;;;;;;12.93;11.73;;;4.80;99.90;;;;;;5085265;28;20716;-67
2021/04/26 04:04:26;;;;;;;13.52;12.25;;;4.80;99.90;;;;;;5112491;27;20295;-68
2021/04/26 04:07:26;;;;;;;15.57;13.30;;;4.70;99.90;;;;;;5105087;28;20055;-68
2021/04/26 04:10:16;;;;;;;13.63;12.32;;;4.70;99.90;;;;;;5104599;28;20063;-67
2021/04/26 04:13:09;;;;;;;13.45;12.23;;;4.70;99.90;;;;;;5099427;28;20097;-67
2021/04/26 04:15:36;;;;;;;13.23;11.95;;;4.70;99.90;;;;;;5085287;28;20036;-68
2021/04/26 04:18:03;;;;;;;14.00;12.60;;;4.70;99.90;;;;;;5086969;28;20154;-68
2021/04/26 04:20:35;;;;;;;;;;;4.70;99.90;;;;;;5087964;28;20036;-67
2021/04/26 04:23:02;;;;;;;13.98;12.65;;;4.70;99.90;;;;;;5104427;28;19924;-67
2021/04/26 04:25:29;;;;;;;13.50;12.25;;;4.70;99.90;;;;;;5101106;28;20044;-68
2021/04/26 04:27:59;;;;;;;14.25;12.75;;;4.70;99.90;;;;;;5083589;28;20083;-68
2021/04/26 04:30:25;;;;;;;14.27;12.85;;;4.80;99.90;;;;;;5103154;28;20082;-68
2021/04/26 04:33:05;;;;;;;13.65;12.25;;;4.80;99.90;;;;;;5104624;28;20093;-68
2021/04/26 04:35:50;;;;;;;14.27;12.75;;;4.90;99.90;;;;;;5104152;28;20137;-68
2021/04/26 04:38:36;;;;;;;13.35;12.25;;;4.90;99.90;;;;;;5090279;28;20124;-68
2021/04/26 04:41:23;;;;;;;14.18;12.68;;;5.00;99.90;;;;;;5094997;28;20502;-68
2021/04/26 04:43:51;;;;;;;12.52;11.43;;;5.00;99.90;;;;;;5099202;28;20051;-68
2021/04/26 04:46:31;;;;;;;14.40;12.35;;;5.00;99.90;;;;;;5088656;28;20306;-68
2021/04/26 04:49:14;;;;;;;14.05;12.43;;;5.00;99.90;;;;;;5097420;27;20299;-67
2021/04/26 04:51:54;;;;;;;13.70;12.27;;;5.00;99.90;;;;;;5117630;27;20302;-67
2021/04/26 04:54:34;;;;;;;13.23;11.93;;;5.10;99.90;;;;;;5088548;28;20319;-68
2021/04/26 04:57:15;;;;;;;13.88;12.68;;;5.10;99.90;;;;;;5112989;27;20820;-67
2021/04/26 04:59:55;;;;;;;13.98;12.70;;;5.00;99.90;;;;;;5129607;27;20346;-67
2021/04/26 05:02:54;;;;;;;13.80;12.32;;;5.00;99.90;;;;;;5072238;28;20317;-68
2021/04/26 05:05:51;;;;;;;13.77;12.38;;;5.10;99.90;;;;;;5105252;27;20115;-68
2021/04/26 05:08:49;;;;;;;14.57;13.27;;;5.10;99.90;;;;;;5105754;27;20109;-68
2021/04/26 05:11:51;;;;;;;15.32;12.80;;;5.20;99.90;;;;;;5068491;28;20309;-68
2021/04/26 05:14:42;;;;;;;18.83;13.18;;;5.20;99.90;;;;;;5064306;28;20299;-68
2021/04/26 05:17:35;;;;;;;14.15;12.73;;;5.30;99.90;;;;;;5088176;27;20377;-68
2021/04/26 05:20:15;;;;;;;16.23;14.52;;;5.30;99.90;;;;;;5088993;28;20299;-67
2021/04/26 05:22:55;;;;;;;15.43;13.60;;;5.40;99.90;;;;;;5066996;28;20691;-67
2021/04/26 05:25:34;;;;;;;13.57;12.27;;;5.50;99.90;;;;;;5100436;27;20360;-68
2021/04/26 05:28:01;;;;;;;14.05;12.55;;;5.60;99.90;;;;;;5073720;28;20123;-67
2021/04/26 05:30:40;;;;;;;14.30;12.70;;;5.60;99.90;;;;;;5075497;27;20361;-68
2021/04/26 05:33:20;;;;;;;14.02;12.60;;;5.70;99.90;;;;;;5067888;27;20444;-68
2021/04/26 05:36:07;;;;;;;14.05;12.70;;;5.70;99.90;;;;;;5108507;27;20771;-68
2021/04/26 05:39:02;;;;;;;14.50;12.95;;;5.80;99.90;;;;;;5075232;27;20363;-67
2021/04/26 05:41:41;;;;;;;13.40;12.20;;;5.80;99.90;;;;;;5087325;27;20960;-67
2021/04/26 05:44:21;;;;;;;14.27;12.82;;;5.90;99.90;;;;;;5066867;27;20361;-67
2021/04/26 05:47:17;;;;;;;13.82;12.48;;;6.00;99.90;;;;;;5070336;28;20056;-67
2021/04/26 05:49:57;;;;;;;13.35;12.02;;;6.00;99.90;;;;;;5066231;28;20458;-68
2021/04/26 05:52:24;;;;;;;13.93;12.73;;;6.00;99.90;;;;;;5062735;28;20037;-67
2021/04/26 05:55:05;;;;;;;14.20;12.80;;;6.10;99.90;;;;;;5082538;27;20700;-67
2021/04/26 05:57:48;;;;;;;14.18;12.88;;;6.10;99.90;;;;;;5070244;27;20391;-67
2021/04/26 06:00:27;;;;;;;12.95;11.80;;;6.20;99.90;;;;;;5086828;27;20441;-67
2021/04/26 06:03:10;;;;;;;13.35;12.25;;;6.30;99.90;;;;;;5068535;27;20403;-68
2021/04/26 06:05:50;;;;;;;13.48;12.23;;;6.40;99.90;;;;;;5088189;27;20356;-67
2021/04/26 06:08:30;;;;;;;13.30;11.98;;;6.40;99.90;;;;;;5105423;27;20359;-68
2021/04/26 06:10:56;;;;;;;13.48;12.07;;;6.40;99.90;;;;;;5086754;28;20071;-67
2021/04/26 06:13:35;;;;;;;14.48;12.82;;;6.50;99.90;;;;;;5108086;27;20354;-68
2021/04/26 06:16:13;;;;;;;13.55;11.90;;;6.60;99.90;;;;;;5109204;27;20404;-68
2021/04/26 06:18:53;;;;;;;12.68;11.57;;;6.60;99.90;;;;;;5081396;27;20406;-68
2021/04/26 06:21:31;;;;;;;12.93;11.00;;;6.60;99.90;;;;;;5081691;27;20433;-67
2021/04/26 06:24:11;;;;;;;12.52;11.35;;;6.60;99.90;;;;;;5127413;27;20354;-67
2021/04/26 06:26:51;;;;;;;14.18;12.88;;;6.70;99.90;;;;;;5108473;27;20820;-68
2021/04/26 06:29:30;;;;;;;12.95;11.77;;;6.80;99.90;;;;;;5080474;27;20364;-68
2021/04/26 06:32:09;;;;;;;12.45;11.35;;;6.90;99.90;;;;;;5118786;27;20368;-68
2021/04/26 06:34:48;;;;;;;12.10;11.15;;;6.90;99.90;;;;;;5088121;27;20356;-68
2021/04/26 06:37:27;;;;;;;11.70;10.80;;;6.90;99.90;;;;;;5107409;27;20817;-68
2021/04/26 06:40:07;;;;;;;13.15;11.32;;;7.00;99.90;;;;;;5083709;27;20348;-67
2021/04/26 06:42:47;;;;;;;11.93;10.82;;;7.10;99.90;;;;;;5070353;27;20361;-68
2021/04/26 06:45:26;;;;;;;12.63;11.40;;;7.20;99.90;;;;;;5089131;27;20356;-68
2021/04/26 06:48:18;;;;;;;12.68;11.63;;;7.30;99.90;;;;;;5086641;27;20378;-68
2021/04/26 06:50:57;;;;;;;12.85;11.52;;;7.40;99.90;;;;;;5086831;27;20348;-69
2021/04/26 06:53:37;;;;;;;11.80;10.80;;;7.40;99.90;;;;;;5086227;27;20918;-68
2021/04/26 06:56:15;;;;;;;12.63;11.35;;;7.50;99.90;;;;;;5086462;27;20348;-68
2021/04/26 06:58:54;;;;;;;13.77;11.05;;;7.60;99.90;;;;;;5088203;28;20352;-67
2021/04/26 07:01:32;;;;;;;13.18;11.20;;;7.70;99.90;;;;;;5088172;27;20409;-68
2021/04/26 07:04:12;;;;;;;11.63;10.55;;;7.70;99.90;;;;;;5079795;27;20421;-68
2021/04/26 07:06:50;;;;;;;13.73;11.23;;;7.80;99.90;;;;;;5087004;27;20355;-67
2021/04/26 07:09:28;;;;;;;14.30;11.85;;;7.90;99.90;;;;;;5084524;27;20410;-68
2021/04/26 07:12:08;;;;;;;13.73;10.65;;;8.00;99.90;;;;;;5126088;27;20361;-68
2021/04/26 07:14:46;;;;;;;12.05;10.88;;;8.10;99.90;;;;;;5070586;27;20353;-69
2021/04/26 07:17:31;;;;;;;12.60;11.50;;;8.20;99.90;;;;;;5080217;28;20326;-69
2021/04/26 07:20:12;;;;;;;11.90;10.90;;;8.30;99.90;;;;;;5093563;27;21063;-67
2021/04/26 07:22:53;;;;;;;11.88;10.77;;;8.40;99.90;;;;;;5086531;27;20429;-68
2021/04/26 07:25:32;;;;;;;10.30;9.40;;;8.50;99.90;;;;;;5081265;27;20377;-69
2021/04/26 07:28:12;;;;;;;11.80;9.85;;;8.50;99.90;;;;;;5076484;27;20435;-68
2021/04/26 07:30:50;;;;;;;11.02;10.02;;;8.60;99.90;;;;;;5079352;27;20428;-68
2021/04/26 07:33:28;;;;;;;11.02;9.98;;;8.70;99.90;;;;;;5087139;27;20348;-68
2021/04/26 07:36:06;;;;;;;11.77;10.73;;;8.70;99.90;;;;;;5087811;27;20360;-68
2021/04/26 07:38:46;;;;;;;11.07;9.90;;;8.90;99.90;;;;;;5073868;27;20369;-68
2021/04/26 07:41:24;;;;;;;11.15;10.25;;;9.00;99.90;;;;;;5072131;27;20866;-68
2021/04/26 07:44:04;;;;;;;12.63;10.18;;;9.00;99.90;;;;;;5099036;27;20367;-68
2021/04/26 07:46:44;;;;;;;11.35;10.25;;;9.00;99.90;;;;;;5074718;27;20369;-68
2021/04/26 07:49:23;;;;;;;11.27;10.13;;;9.20;99.90;;;;;;5048664;28;20875;-68
2021/04/26 07:52:03;;;;;;;11.18;10.07;;;9.30;99.90;;;;;;5080322;27;20344;-68
2021/04/26 07:54:42;;;;;;;12.07;11.00;;;9.50;99.80;;;;;;5085742;27;20376;-67
2021/04/26 07:57:21;;;;;;;11.45;10.13;;;9.50;98.30;;;;;;5076004;27;20754;-69
2021/04/26 08:00:28;;;;;;;10.88;9.98;;;9.60;97.80;;;;;;5034993;28;20134;-69
2021/04/26 08:03:16;;;;;;;10.60;9.70;;;9.70;97.60;;;;;;5004384;28;20120;-69
2021/04/26 08:06:04;;;;;;;13.45;10.68;;;9.80;96.60;;;;;;5004380;28;20163;-69
2021/04/26 08:08:52;;;;;;;11.65;10.30;;;9.80;96.60;;;;;;5003845;28;20072;-69
2021/04/26 08:11:39;;;;;;;13.45;10.20;;;10.00;96.80;;;;;;4992460;28;20122;-68
2021/04/26 08:14:26;;;;;;;10.15;9.35;;;10.10;96.80;;;;;;5010901;28;20084;-68
2021/04/26 08:17:13;;;;;;;10.70;9.70;;;10.30;95.20;;;;;;4986180;28;20054;-68
2021/04/26 08:20:01;;;;;;;9.98;8.98;;;10.30;94.60;;;;;;4989353;28;20049;-68
2021/04/26 08:22:48;;;;;;;10.07;9.07;;;10.40;95.00;;;;;;5003406;28;20136;-69
2021/04/26 08:25:37;;;;;;;10.52;9.55;;;10.40;94.70;;;;;;5001569;28;20579;-69
2021/04/26 08:28:26;;;;;;;9.75;8.85;;;10.50;94.50;;;;;;5032295;28;20419;-69
2021/04/26 08:31:13;;;;;;;10.52;9.50;;;10.70;93.70;;;;;;5050539;28;20052;-69
2021/04/26 08:34:00;;;;;;;12.20;10.90;;;10.80;93.10;;;;;;5038468;28;20094;-69
2021/04/26 08:36:52;;;;;;;12.05;10.90;;;10.90;92.70;;;;;;5020491;28;20140;-69
2021/04/26 08:39:39;;;;;;;11.65;10.75;;;11.00;92.20;;;;;;5030827;28;20049;-69
2021/04/26 08:42:27;;;;;;;10.77;9.75;;;11.00;91.90;;;;;;5030194;28;20137;-69
2021/04/26 08:45:14;;;;;;;12.18;9.75;;;11.10;91.80;;;;;;5077194;28;20060;-69
2021/04/26 08:48:03;;;;;;;10.68;9.77;;;11.10;91.30;;;;;;5051955;28;20044;-69
2021/04/26 08:50:51;;;;;;;10.43;9.50;;;11.30;91.30;;;;;;5051858;28;20084;-69
2021/04/26 08:53:39;;;;;;;10.40;9.40;;;11.40;90.90;;;;;;5042243;28;20212;-69
2021/04/26 08:56:26;;;;;;;12.00;9.35;;;11.40;90.10;;;;;;5055920;28;20433;-69
2021/04/26 08:59:13;;;;;;;10.40;9.60;;;11.40;90.30;;;;;;5050538;28;20102;-68
2021/04/26 09:02:04;;;;;;;10.70;9.80;;;11.60;90.30;;;;;;5051033;28;20061;-68
2021/04/26 09:04:44;;;;;;;9.88;8.90;;;11.60;89.60;;;;;;5065230;28;20052;-69
2021/04/26 09:07:12;;;;;;;10.25;9.35;;;11.70;89.50;;;;;;5059284;28;20049;-69
2021/04/26 09:09:44;;;;;;;11.93;10.73;;;11.90;88.70;;;;;;5051682;28;20041;-68
2021/04/26 09:12:24;;;;;;;10.90;9.85;;;11.90;88.60;;;;;;5051708;28;20510;-69
2021/04/26 09:14:56;;;;;;;11.20;10.20;;;11.90;87.20;;;;;;5052856;28;20122;-69
2021/04/26 09:17:32;;;;;;;10.48;9.68;;;12.00;86.90;;;;;;5050736;28;20079;-68
2021/04/26 09:20:15;;;;;;;10.68;9.80;;;12.20;85.90;;;;;;5051624;28;20033;-69
2021/04/26 09:22:48;;;;;;;;;;;12.00;85.10;;;;;;5053601;28;20138;-69
2021/04/26 09:25:24;;;;;;;;;;;12.20;85.00;;;;;;5050494;28;19970;-69
2021/04/26 09:27:55;;;;;;;10.30;9.27;;;12.10;85.10;;;;;;5081820;28;19924;-68
2021/04/26 09:30:52;;;;;;;10.05;9.15;;;12.20;85.20;;;;;;5047085;28;20781;-68
2021/04/26 09:33:29;;;;;;;10.68;9.77;;;12.20;83.60;;;;;;5046894;28;20045;-68
2021/04/26 09:36:22;;;;;;;10.20;9.30;;;12.20;83.60;;;;;;5042209;28;20566;-68
2021/04/26 09:38:50;;;;;;;;;;;12.20;83.20;;;;;;5039083;28;20045;-69
2021/04/26 09:41:22;;;;;;;10.10;9.15;;;12.40;82.70;;;;;;5049439;28;19925;-69
2021/04/26 09:43:53;;;;;;;10.37;9.57;;;12.50;82.30;;;;;;5045770;28;20413;-68
2021/04/26 09:46:21;;;;;;;10.30;9.40;;;12.60;83.10;;;;;;5050693;28;20057;-69
2021/04/26 09:48:49;;;;;;;10.30;9.50;;;12.80;82.00;;;;;;5048818;28;20546;-68
2021/04/26 09:51:21;;;;;;;12.50;9.68;;;13.00;81.90;;;;;;5036470;28;20150;-69
2021/04/26 09:53:54;;;;;;;10.88;9.80;;;13.10;80.00;;;;;;5051324;28;20041;-69
2021/04/26 09:56:25;;;;;;;10.57;9.60;;;13.00;79.70;;;;;;5050381;28;20132;-68
2021/04/26 09:58:54;;;;;;;10.50;9.45;;;13.00;80.50;;;;;;5050873;28;20103;-69
2021/04/26 10:01:23;;;;;;;10.68;9.68;;;13.10;79.40;;;;;;5050977;28;20514;-68
2021/04/26 10:03:51;;;;;;;9.90;9.20;;;13.00;79.20;;;;;;5051365;28;20045;-70
2021/04/26 10:06:23;;;;;;;11.43;10.45;;;13.30;79.80;;;;;;5049002;28;20372;-69
2021/04/26 10:08:57;;;;;;;11.43;9.27;;;13.50;77.80;;;;;;5047130;28;20092;-69
2021/04/26 10:11:27;;;;;;;10.38;9.57;;;13.40;78.60;;;;;;5049763;28;20041;-69
2021/04/26 10:14:17;;;;;;;10.93;9.60;;;13.30;78.00;;;;;;5047932;28;20413;-69
2021/04/26 10:17:09;;;;;;;10.50;9.50;;;13.30;79.80;;;;;;5050449;28;20079;-68
2021/04/26 10:19:50;;;;;;;10.27;9.30;;;13.70;78.20;;;;;;5043515;28;20407;-71
2021/04/26 10:22:35;;;;;;;10.15;9.30;;;13.40;76.70;;;;;;5051066;28;20060;-70
2021/04/26 10:25:05;;;;;;;12.23;11.13;;;13.30;77.50;;;;;;5051150;28;20056;-69
2021/04/26 10:27:38;;;;;;;10.45;9.50;;;13.60;77.60;;;;;;5045639;28;20114;-69
2021/04/26 10:30:17;;;;;;;10.70;9.60;;;14.00;77.00;;;;;;5046447;28;20562;-69
2021/04/26 10:33:03;;;;;;;10.10;9.13;;;14.20;75.90;;;;;;5048397;28;20051;-69
2021/04/26 10:35:46;;;;;;;10.75;9.68;;;13.80;76.20;;;;;;5035522;28;20053;-69
2021/04/26 10:38:37;;;;;;;9.90;9.02;;;14.10;76.40;;;;;;5050276;28;20053;-69
2021/04/26 10:41:06;;;;;;;9.90;9.13;;;14.50;75.40;;;;;;5047793;28;20132;-69
2021/04/26 10:43:34;;;;;;;10.02;9.20;;;14.70;72.70;;;;;;5049190;28;20045;-69
2021/04/26 10:46:20;;;;;;;9.70;8.80;;;14.80;72.80;;;;;;5051065;28;20526;-69
2021/04/26 10:49:03;;;;;;;11.93;8.70;;;15.20;71.50;;;;;;5046350;28;20049;-68
2021/04/26 10:51:31;;;;;;;10.38;9.27;;;15.40;70.80;;;;;;5050537;28;20051;-69
2021/04/26 10:54:04;;;;;;;9.98;8.82;;;15.40;70.00;;;;;;5048206;28;20124;-70
2021/04/26 10:56:34;;;;;;;10.18;9.27;;;15.40;68.40;;;;;;5050718;28;20053;-70
2021/04/26 10:59:16;;;;;;;9.07;8.30;;;15.40;69.00;;;;;;5046451;28;20132;-69
2021/04/26 11:01:51;;;;;;;9.57;8.88;;;15.60;68.00;;;;;;5046709;28;20056;-69
2021/04/26 11:04:19;;;;;;;10.18;9.38;;;16.10;66.20;;;;;;5043264;28;20060;-70
2021/04/26 11:07:20;;;;;;;10.52;9.55;;;16.40;66.70;;;;;;5050211;28;20110;-69
2021/04/26 11:09:49;;;;;;;9.73;8.93;;;16.30;64.70;;;;;;5040044;28;20279;-69
2021/04/26 11:12:37;;;;;;;9.88;8.90;;;15.90;65.40;;;;;;5041624;28;20104;-68
2021/04/26 11:15:16;;;;;;;10.48;9.43;;;16.10;65.40;;;;;;5038356;28;20419;-69
2021/04/26 11:17:56;;;;;;;9.27;8.43;;;16.50;64.00;;;;;;5048880;28;20479;-68
2021/04/26 11:20:25;;;;;;;10.05;9.20;;;16.70;63.50;;;;;;5051296;28;20041;-68
2021/04/26 11:22:56;;;;;;;10.52;9.50;;;16.60;63.60;;;;;;5050462;28;20076;-68
2021/04/26 11:25:34;;;;;;;10.00;9.13;;;16.90;62.60;;;;;;5046197;28;20581;-68
2021/04/26 11:28:01;;;;;;;9.98;9.27;;;17.20;60.10;;;;;;5036403;28;20054;-69
2021/04/26 11:30:34;;;;;;;9.88;9.20;;;17.00;60.20;;;;;;5076674;28;20052;-70
2021/04/26 11:33:04;;;;;;;10.32;9.52;;;17.00;60.60;;;;;;5042927;28;20056;-69
2021/04/26 11:35:33;;;;;;;10.07;9.10;;;16.90;61.90;;;;;;5046334;28;20479;-68
2021/04/26 11:38:01;;;;;;;10.27;9.48;;;17.40;59.80;;;;;;5049735;28;20072;-69
2021/04/26 11:40:31;;;;;;;10.57;9.57;;;17.90;58.30;;;;;;5047117;28;20049;-69
2021/04/26 11:43:16;;;;;;;10.38;9.50;;;18.30;58.30;;;;;;5049639;28;20041;-69
2021/04/26 11:45:47;;;;;;;10.40;9.60;;;18.90;56.50;;;;;;5048721;28;20476;-69
2021/04/26 11:48:26;;;;;;;10.82;9.80;;;19.10;55.70;;;;;;5048640;28;20054;-69
2021/04/26 11:50:55;;;;;;;10.50;9.70;;;19.80;55.70;;;;;;5034064;28;20053;-68
2021/04/26 11:53:33;;;;;;;10.27;9.27;;;20.00;53.80;;;;;;5041265;28;20045;-68
2021/04/26 11:56:13;;;;;;;9.93;9.02;;;19.60;53.90;;;;;;5049769;28;20587;-70
2021/04/26 11:58:41;;;;;;;10.15;9.15;;;19.40;53.90;;;;;;5049252;28;20047;-69
2021/04/26 12:01:11;;;;;;;9.77;9.00;;;19.90;53.60;;;;;;5048214;28;20141;-68
2021/04/26 12:04:10;;;;;;;10.70;9.70;;;20.00;52.40;;;;;;5046387;28;20040;-68
2021/04/26 12:06:42;;;;;;;10.85;9.98;;;19.60;52.80;;;;;;5039887;28;20072;-69
2021/04/26 12:09:09;;;;;;;10.60;9.75;;;19.40;53.00;;;;;;5047825;28;20033;-69
2021/04/26 12:11:36;;;;;;;9.85;9.15;;;20.10;52.50;;;;;;5048515;28;20037;-69
2021/04/26 12:14:11;;;;;;;10.00;9.00;;;20.50;51.40;;;;;;5049711;28;20033;-70
2021/04/26 12:16:38;;;;;;;9.82;8.90;;;21.20;50.90;;;;;;5047900;28;20068;-68
2021/04/26 12:19:05;;;;;;;9.70;8.82;;;21.70;49.40;;;;;;5049156;28;20045;-68
2021/04/26 12:21:36;;;;;;;10.80;9.82;;;21.20;49.80;;;;;;5048424;28;20049;-69
2021/04/26 12:24:03;;;;;;;10.48;9.63;;;21.80;49.90;;;;;;5048760;28;20083;-70
2021/04/26 12:26:31;;;;;;;9.85;9.15;;;22.50;48.30;;;;;;5049007;28;20307;-70
2021/04/26 12:28:58;;;;;;;10.10;9.38;;;22.80;47.70;;;;;;5046678;28;20041;-70
2021/04/26 12:31:27;;;;;;;10.55;9.65;;;22.40;46.60;;;;;;5048241;28;20145;-68
2021/04/26 12:34:07;;;;;;;10.30;9.40;;;22.60;46.70;;;;;;5046449;28;20053;-69
2021/04/26 12:36:35;;;;;;;11.25;10.35;;;22.60;46.00;;;;;;5043142;28;20046;-70
2021/04/26 12:39:03;;;;;;;11.25;10.30;;;23.30;46.00;;;;;;5034605;28;20554;-70
2021/04/26 12:41:39;;;;;;;9.93;9.23;;;23.30;45.60;;;;;;5048230;28;20040;-70
2021/04/26 12:44:06;;;;;;;9.70;9.00;;;23.20;45.20;;;;;;5050624;28;20094;-69
2021/04/26 12:46:39;;;;;;;10.80;9.85;;;23.00;45.00;;;;;;5045078;28;20563;-70
2021/04/26 12:49:17;;;;;;;9.85;9.00;;;23.20;44.40;;;;;;5051173;28;20513;-69
2021/04/26 12:51:43;;;;;;;9.93;9.07;;;22.90;44.60;;;;;;5051950;28;20063;-69
2021/04/26 12:54:11;;;;;;;9.93;9.07;;;22.70;44.10;;;;;;5052529;28;20087;-68
2021/04/26 12:56:38;;;;;;;10.15;9.30;;;22.20;45.00;;;;;;5051457;28;20037;-68
2021/04/26 12:59:05;;;;;;;10.23;9.27;;;22.80;45.20;;;;;;5046385;28;20049;-69
2021/04/26 13:01:32;;;;;;;10.57;9.70;;;23.40;45.00;;;;;;5042665;28;20613;-69
2021/04/26 13:04:00;;;;;;;10.00;9.20;;;23.60;43.80;;;;;;5049810;28;20487;-70
2021/04/26 13:06:47;;;;;;;10.07;9.13;;;23.90;43.60;;;;;;5052883;28;20522;-71
2021/04/26 13:09:14;;;;;;;9.85;9.10;;;23.50;43.90;;;;;;5045006;28;20399;-69
2021/04/26 13:11:52;;;;;;;10.95;9.88;;;23.00;43.50;;;;;;5051873;28;20523;-69
2021/04/26 13:14:31;;;;;;;10.55;9.75;;;23.60;44.30;;;;;;5050825;28;20052;-68
2021/04/26 13:17:04;;;;;;;9.77;9.00;;;24.10;43.10;;;;;;5043266;28;20052;-69
2021/04/26 13:19:32;;;;;;;10.30;9.60;;;24.60;43.10;;;;;;5052031;28;20128;-70
2021/04/26 13:21:59;;;;;;;10.60;9.90;;;24.70;42.20;;;;;;5037262;28;20129;-70
2021/04/26 13:24:28;;;;;;;10.27;9.57;;;24.70;42.50;;;;;;5051520;28;20041;-70
2021/04/26 13:26:59;;;;;;;10.10;9.40;;;25.40;41.90;;;;;;5049827;28;20483;-70
2021/04/26 13:29:27;;;;;;;10.50;9.70;;;26.00;41.20;;;;;;5049105;28;20053;-69
2021/04/26 13:31:59;;;;;;;10.10;9.18;;;26.90;40.60;;;;;;5046930;28;20411;-70
2021/04/26 13:34:27;;;;;;;;;;;27.30;39.20;;;;;;5051545;28;20438;-70
2021/04/26 13:36:55;;;;;;;9.98;9.10;;;27.50;39.60;;;;;;5045949;28;20028;-70
2021/04/26 13:39:23;;;;;;;10.02;9.32;;;28.40;38.90;;;;;;5047850;28;20044;-69
2021/04/26 13:41:51;;;;;;;10.20;9.30;;;29.00;38.70;;;;;;5050383;28;20095;-70
2021/04/26 13:44:19;;;;;;;10.55;9.85;;;29.60;38.70;;;;;;5051596;28;20483;-70
2021/04/26 13:46:50;;;;;;;10.30;9.50;;;31.00;38.00;;;;;;5046811;28;20044;-69